sensor_id;sensor_type;location;lat;lon;timestamp;P1;durP1;ratioP1;P2;durP2;ratioP2
8825;SDS011;4449;50.872;4.714;2023-04-01T00:01:39;3.88;;;1.55;;
8825;SDS011;4449;50.872;4.714;2023-04-01T00:04:07;4.20;;;1.63;;
8825;SDS011;4449;50.872;4.714;2023-04-01T00:06:34;2.07;;;1.30;;
8825;SDS011;4449;50.872;4.714;2023-04-01T00:09:04;4.38;;;1.35;;
8825;SDS011;4449;50.872;4.714;2023-04-01T00:11:32;3.33;;;1.30;;
8825;SDS011;4449;50.872;4.714;2023-04-01T00:14:00;2.38;;;1.40;;
8825;SDS011;4449;50.872;4.714;2023-04-01T00:16:28;3.58;;;1.40;;
8825;SDS011;4449;50.872;4.714;2023-04-01T00:18:55;2.45;;;1.08;;
8825;SDS011;4449;50.872;4.714;2023-04-01T00:21:23;4.70;;;1.50;;
8825;SDS011;4449;50.872;4.714;2023-04-01T00:23:51;2.65;;;1.15;;
8825;SDS011;4449;50.872;4.714;2023-04-01T00:26:21;1.55;;;1.27;;
8825;SDS011;4449;50.872;4.714;2023-04-01T00:28:50;2.90;;;1.33;;
8825;SDS011;4449;50.872;4.714;2023-04-01T00:31:18;3.08;;;1.30;;
8825;SDS011;4449;50.872;4.714;2023-04-01T00:33:45;2.35;;;1.20;;
8825;SDS011;4449;50.872;4.714;2023-04-01T00:36:14;2.80;;;1.17;;
8825;SDS011;4449;50.872;4.714;2023-04-01T00:38:42;2.35;;;1.33;;
8825;SDS011;4449;50.872;4.714;2023-04-01T00:41:10;3.03;;;1.52;;
8825;SDS011;4449;50.872;4.714;2023-04-01T00:43:41;1.95;;;1.05;;
8825;SDS011;4449;50.872;4.714;2023-04-01T00:46:09;2.92;;;1.55;;
8825;SDS011;4449;50.872;4.714;2023-04-01T00:48:38;3.42;;;1.40;;
8825;SDS011;4449;50.872;4.714;2023-04-01T00:51:07;2.17;;;1.30;;
8825;SDS011;4449;50.872;4.714;2023-04-01T00:53:37;1.35;;;1.25;;
8825;SDS011;4449;50.872;4.714;2023-04-01T00:56:07;3.08;;;1.10;;
8825;SDS011;4449;50.872;4.714;2023-04-01T00:58:38;3.28;;;1.50;;
8825;SDS011;4449;50.872;4.714;2023-04-01T01:01:09;3.40;;;1.40;;
8825;SDS011;4449;50.872;4.714;2023-04-01T01:03:36;1.77;;;1.37;;
8825;SDS011;4449;50.872;4.714;2023-04-01T01:06:08;3.65;;;1.20;;
8825;SDS011;4449;50.872;4.714;2023-04-01T01:08:43;2.50;;;1.17;;
8825;SDS011;4449;50.872;4.714;2023-04-01T01:11:14;2.53;;;1.10;;
8825;SDS011;4449;50.872;4.714;2023-04-01T01:13:47;1.43;;;0.83;;
8825;SDS011;4449;50.872;4.714;2023-04-01T01:16:20;1.05;;;1.00;;
8825;SDS011;4449;50.872;4.714;2023-04-01T01:18:49;1.20;;;1.10;;
8825;SDS011;4449;50.872;4.714;2023-04-01T01:24:13;0.90;;;0.80;;
8825;SDS011;4449;50.872;4.714;2023-04-01T01:26:53;0.90;;;0.90;;
8825;SDS011;4449;50.872;4.714;2023-04-01T01:29:39;0.70;;;0.70;;
8825;SDS011;4449;50.872;4.714;2023-04-01T01:32:11;1.58;;;1.20;;
8825;SDS011;4449;50.872;4.714;2023-04-01T01:34:43;0.90;;;0.90;;
8825;SDS011;4449;50.872;4.714;2023-04-01T01:37:16;0.82;;;0.82;;
8825;SDS011;4449;50.872;4.714;2023-04-01T01:39:46;1.25;;;0.93;;
8825;SDS011;4449;50.872;4.714;2023-04-01T01:42:15;1.40;;;0.95;;
8825;SDS011;4449;50.872;4.714;2023-04-01T01:44:45;1.02;;;1.00;;
8825;SDS011;4449;50.872;4.714;2023-04-01T01:47:14;0.80;;;0.80;;
8825;SDS011;4449;50.872;4.714;2023-04-01T01:49:42;0.90;;;0.90;;
8825;SDS011;4449;50.872;4.714;2023-04-01T01:52:11;0.75;;;0.70;;
8825;SDS011;4449;50.872;4.714;2023-04-01T01:54:47;1.27;;;0.93;;
8825;SDS011;4449;50.872;4.714;2023-04-01T01:57:15;1.05;;;0.90;;
8825;SDS011;4449;50.872;4.714;2023-04-01T01:59:44;1.02;;;0.82;;
8825;SDS011;4449;50.872;4.714;2023-04-01T02:02:13;0.90;;;0.90;;
8825;SDS011;4449;50.872;4.714;2023-04-01T02:04:42;1.10;;;0.83;;
8825;SDS011;4449;50.872;4.714;2023-04-01T02:07:11;0.90;;;0.90;;
8825;SDS011;4449;50.872;4.714;2023-04-01T02:09:41;0.80;;;0.80;;
8825;SDS011;4449;50.872;4.714;2023-04-01T02:12:11;0.90;;;0.85;;
8825;SDS011;4449;50.872;4.714;2023-04-01T02:14:41;0.80;;;0.80;;
8825;SDS011;4449;50.872;4.714;2023-04-01T02:17:11;1.20;;;1.10;;
8825;SDS011;4449;50.872;4.714;2023-04-01T02:19:40;2.55;;;1.20;;
8825;SDS011;4449;50.872;4.714;2023-04-01T02:22:11;1.23;;;1.13;;
8825;SDS011;4449;50.872;4.714;2023-04-01T02:24:41;1.20;;;1.20;;
8825;SDS011;4449;50.872;4.714;2023-04-01T02:27:12;1.30;;;1.20;;
8825;SDS011;4449;50.872;4.714;2023-04-01T02:29:40;1.50;;;1.30;;
8825;SDS011;4449;50.872;4.714;2023-04-01T02:32:07;3.25;;;1.52;;
8825;SDS011;4449;50.872;4.714;2023-04-01T02:34:36;2.00;;;1.80;;
8825;SDS011;4449;50.872;4.714;2023-04-01T02:37:04;2.17;;;1.97;;
8825;SDS011;4449;50.872;4.714;2023-04-01T02:39:32;1.90;;;1.80;;
8825;SDS011;4449;50.872;4.714;2023-04-01T02:41:59;3.05;;;1.80;;
8825;SDS011;4449;50.872;4.714;2023-04-01T02:44:28;2.53;;;2.22;;
8825;SDS011;4449;50.872;4.714;2023-04-01T02:46:56;3.17;;;2.40;;
8825;SDS011;4449;50.872;4.714;2023-04-01T02:49:26;2.17;;;2.08;;
8825;SDS011;4449;50.872;4.714;2023-04-01T02:51:54;1.98;;;1.83;;
8825;SDS011;4449;50.872;4.714;2023-04-01T02:54:22;2.70;;;1.80;;
8825;SDS011;4449;50.872;4.714;2023-04-01T02:56:49;2.08;;;1.73;;
8825;SDS011;4449;50.872;4.714;2023-04-01T02:59:17;1.92;;;1.73;;
8825;SDS011;4449;50.872;4.714;2023-04-01T03:01:46;2.10;;;1.90;;
8825;SDS011;4449;50.872;4.714;2023-04-01T03:04:14;2.38;;;2.10;;
8825;SDS011;4449;50.872;4.714;2023-04-01T03:06:42;3.30;;;2.47;;
8825;SDS011;4449;50.872;4.714;2023-04-01T03:09:10;2.83;;;2.00;;
8825;SDS011;4449;50.872;4.714;2023-04-01T03:11:37;2.03;;;1.75;;
8825;SDS011;4449;50.872;4.714;2023-04-01T03:14:06;3.92;;;2.20;;
8825;SDS011;4449;50.872;4.714;2023-04-01T03:16:33;3.15;;;1.95;;
8825;SDS011;4449;50.872;4.714;2023-04-01T03:19:03;3.90;;;2.40;;
8825;SDS011;4449;50.872;4.714;2023-04-01T03:21:31;3.03;;;2.00;;
8825;SDS011;4449;50.872;4.714;2023-04-01T03:23:58;2.83;;;2.00;;
8825;SDS011;4449;50.872;4.714;2023-04-01T03:26:26;3.28;;;2.10;;
8825;SDS011;4449;50.872;4.714;2023-04-01T03:28:54;3.38;;;2.10;;
8825;SDS011;4449;50.872;4.714;2023-04-01T03:31:22;2.15;;;1.90;;
8825;SDS011;4449;50.872;4.714;2023-04-01T03:33:50;4.03;;;2.00;;
8825;SDS011;4449;50.872;4.714;2023-04-01T03:36:19;2.55;;;1.98;;
8825;SDS011;4449;50.872;4.714;2023-04-01T03:38:47;2.72;;;2.10;;
8825;SDS011;4449;50.872;4.714;2023-04-01T03:41:15;2.97;;;2.47;;
8825;SDS011;4449;50.872;4.714;2023-04-01T03:43:44;3.90;;;2.40;;
8825;SDS011;4449;50.872;4.714;2023-04-01T03:46:12;5.88;;;2.38;;
8825;SDS011;4449;50.872;4.714;2023-04-01T03:48:43;4.10;;;2.42;;
8825;SDS011;4449;50.872;4.714;2023-04-01T03:51:11;2.75;;;2.55;;
8825;SDS011;4449;50.872;4.714;2023-04-01T03:53:40;4.63;;;2.50;;
8825;SDS011;4449;50.872;4.714;2023-04-01T03:56:08;3.53;;;2.80;;
8825;SDS011;4449;50.872;4.714;2023-04-01T03:58:36;5.28;;;3.20;;
8825;SDS011;4449;50.872;4.714;2023-04-01T04:01:12;4.70;;;3.05;;
8825;SDS011;4449;50.872;4.714;2023-04-01T04:03:40;7.57;;;3.50;;
8825;SDS011;4449;50.872;4.714;2023-04-01T04:06:10;5.10;;;3.60;;
8825;SDS011;4449;50.872;4.714;2023-04-01T04:08:38;5.47;;;3.35;;
8825;SDS011;4449;50.872;4.714;2023-04-01T04:11:07;6.35;;;3.80;;
8825;SDS011;4449;50.872;4.714;2023-04-01T04:13:35;7.03;;;4.00;;
8825;SDS011;4449;50.872;4.714;2023-04-01T04:16:03;6.25;;;3.75;;
8825;SDS011;4449;50.872;4.714;2023-04-01T04:18:31;7.93;;;4.10;;
8825;SDS011;4449;50.872;4.714;2023-04-01T04:20:59;7.05;;;4.32;;
8825;SDS011;4449;50.872;4.714;2023-04-01T04:23:26;5.22;;;3.95;;
8825;SDS011;4449;50.872;4.714;2023-04-01T04:25:56;5.22;;;4.13;;
8825;SDS011;4449;50.872;4.714;2023-04-01T04:28:25;4.77;;;4.20;;
8825;SDS011;4449;50.872;4.714;2023-04-01T04:30:53;7.70;;;4.57;;
8825;SDS011;4449;50.872;4.714;2023-04-01T04:33:21;8.80;;;4.35;;
8825;SDS011;4449;50.872;4.714;2023-04-01T04:35:49;6.95;;;3.90;;
8825;SDS011;4449;50.872;4.714;2023-04-01T04:38:17;7.10;;;4.63;;
8825;SDS011;4449;50.872;4.714;2023-04-01T04:40:45;7.10;;;4.50;;
8825;SDS011;4449;50.872;4.714;2023-04-01T04:43:13;5.03;;;3.97;;
8825;SDS011;4449;50.872;4.714;2023-04-01T04:45:42;5.47;;;3.50;;
8825;SDS011;4449;50.872;4.714;2023-04-01T04:48:10;4.03;;;3.47;;
8825;SDS011;4449;50.872;4.714;2023-04-01T04:50:41;3.78;;;3.17;;
8825;SDS011;4449;50.872;4.714;2023-04-01T04:53:09;5.55;;;4.00;;
8825;SDS011;4449;50.872;4.714;2023-04-01T04:55:37;3.83;;;3.40;;
8825;SDS011;4449;50.872;4.714;2023-04-01T04:58:05;3.70;;;3.20;;
8825;SDS011;4449;50.872;4.714;2023-04-01T05:00:33;3.45;;;3.15;;
8825;SDS011;4449;50.872;4.714;2023-04-01T05:03:02;4.15;;;2.90;;
8825;SDS011;4449;50.872;4.714;2023-04-01T05:05:29;3.13;;;2.80;;
8825;SDS011;4449;50.872;4.714;2023-04-01T05:07:57;3.97;;;2.65;;
8825;SDS011;4449;50.872;4.714;2023-04-01T05:10:25;2.80;;;2.60;;
8825;SDS011;4449;50.872;4.714;2023-04-01T05:12:52;2.22;;;2.10;;
8825;SDS011;4449;50.872;4.714;2023-04-01T05:15:20;2.40;;;2.30;;
8825;SDS011;4449;50.872;4.714;2023-04-01T05:17:48;2.30;;;2.10;;
8825;SDS011;4449;50.872;4.714;2023-04-01T05:20:18;2.63;;;2.05;;
8825;SDS011;4449;50.872;4.714;2023-04-01T05:22:45;2.42;;;2.13;;
8825;SDS011;4449;50.872;4.714;2023-04-01T05:25:13;3.23;;;2.10;;
8825;SDS011;4449;50.872;4.714;2023-04-01T05:27:41;2.13;;;1.92;;
8825;SDS011;4449;50.872;4.714;2023-04-01T05:30:09;2.33;;;2.10;;
8825;SDS011;4449;50.872;4.714;2023-04-01T05:32:37;2.22;;;1.80;;
8825;SDS011;4449;50.872;4.714;2023-04-01T05:35:05;2.10;;;1.90;;
8825;SDS011;4449;50.872;4.714;2023-04-01T05:37:35;2.63;;;2.00;;
8825;SDS011;4449;50.872;4.714;2023-04-01T05:40:03;2.10;;;2.00;;
8825;SDS011;4449;50.872;4.714;2023-04-01T05:42:31;1.92;;;1.83;;
8825;SDS011;4449;50.872;4.714;2023-04-01T05:44:59;1.50;;;1.50;;
8825;SDS011;4449;50.872;4.714;2023-04-01T05:47:27;1.52;;;1.50;;
8825;SDS011;4449;50.872;4.714;2023-04-01T05:49:55;1.67;;;1.58;;
8825;SDS011;4449;50.872;4.714;2023-04-01T05:52:23;1.60;;;1.50;;
8825;SDS011;4449;50.872;4.714;2023-04-01T05:54:54;1.80;;;1.70;;
8825;SDS011;4449;50.872;4.714;2023-04-01T05:57:22;1.90;;;1.80;;
8825;SDS011;4449;50.872;4.714;2023-04-01T05:59:50;1.90;;;1.80;;
8825;SDS011;4449;50.872;4.714;2023-04-01T06:02:18;2.95;;;2.05;;
8825;SDS011;4449;50.872;4.714;2023-04-01T06:04:45;2.40;;;2.20;;
8825;SDS011;4449;50.872;4.714;2023-04-01T06:07:13;2.38;;;2.17;;
8825;SDS011;4449;50.872;4.714;2023-04-01T06:09:41;3.67;;;2.40;;
8825;SDS011;4449;50.872;4.714;2023-04-01T06:12:16;2.33;;;2.20;;
8825;SDS011;4449;50.872;4.714;2023-04-01T06:14:47;2.50;;;2.40;;
8825;SDS011;4449;50.872;4.714;2023-04-01T06:17:19;2.65;;;2.45;;
8825;SDS011;4449;50.872;4.714;2023-04-01T06:19:51;2.97;;;2.78;;
8825;SDS011;4449;50.872;4.714;2023-04-01T06:22:32;4.55;;;3.78;;
8825;SDS011;4449;50.872;4.714;2023-04-01T06:25:07;3.55;;;3.30;;
8825;SDS011;4449;50.872;4.714;2023-04-01T06:27:44;3.67;;;3.20;;
8825;SDS011;4449;50.872;4.714;2023-04-01T06:35:52;4.97;;;3.60;;
8825;SDS011;4449;50.872;4.714;2023-04-01T06:38:31;4.70;;;3.63;;
8825;SDS011;4449;50.872;4.714;2023-04-01T06:41:19;3.95;;;3.55;;
8825;SDS011;4449;50.872;4.714;2023-04-01T06:43:53;4.32;;;3.65;;
8825;SDS011;4449;50.872;4.714;2023-04-01T06:46:26;3.58;;;3.22;;
8825;SDS011;4449;50.872;4.714;2023-04-01T06:49:04;3.53;;;3.20;;
8825;SDS011;4449;50.872;4.714;2023-04-01T06:51:37;4.50;;;3.33;;
8825;SDS011;4449;50.872;4.714;2023-04-01T06:54:09;4.22;;;3.78;;
8825;SDS011;4449;50.872;4.714;2023-04-01T06:56:38;6.78;;;3.95;;
8825;SDS011;4449;50.872;4.714;2023-04-01T06:59:10;4.18;;;3.78;;
8825;SDS011;4449;50.872;4.714;2023-04-01T07:01:40;4.10;;;3.70;;
8825;SDS011;4449;50.872;4.714;2023-04-01T07:04:10;4.22;;;3.47;;
8825;SDS011;4449;50.872;4.714;2023-04-01T07:06:42;4.05;;;3.65;;
8825;SDS011;4449;50.872;4.714;2023-04-01T07:09:12;4.25;;;3.75;;
8825;SDS011;4449;50.872;4.714;2023-04-01T07:11:41;3.72;;;3.47;;
8825;SDS011;4449;50.872;4.714;2023-04-01T07:14:12;3.90;;;3.50;;
8825;SDS011;4449;50.872;4.714;2023-04-01T07:16:42;5.80;;;3.80;;
8825;SDS011;4449;50.872;4.714;2023-04-01T07:19:12;4.70;;;3.47;;
8825;SDS011;4449;50.872;4.714;2023-04-01T07:21:43;3.63;;;3.33;;
8825;SDS011;4449;50.872;4.714;2023-04-01T07:24:13;3.30;;;3.05;;
8825;SDS011;4449;50.872;4.714;2023-04-01T07:26:43;2.97;;;2.78;;
8825;SDS011;4449;50.872;4.714;2023-04-01T07:29:13;2.90;;;2.70;;
8825;SDS011;4449;50.872;4.714;2023-04-01T07:31:51;2.55;;;2.42;;
8825;SDS011;4449;50.872;4.714;2023-04-01T07:34:23;1.80;;;1.70;;
8825;SDS011;4449;50.872;4.714;2023-04-01T07:36:53;1.50;;;1.40;;
8825;SDS011;4449;50.872;4.714;2023-04-01T07:39:30;1.40;;;1.30;;
8825;SDS011;4449;50.872;4.714;2023-04-01T07:42:04;1.33;;;1.33;;
8825;SDS011;4449;50.872;4.714;2023-04-01T07:44:37;1.40;;;1.38;;
8825;SDS011;4449;50.872;4.714;2023-04-01T07:47:12;1.23;;;1.20;;
8825;SDS011;4449;50.872;4.714;2023-04-01T07:49:46;1.00;;;1.00;;
8825;SDS011;4449;50.872;4.714;2023-04-01T07:52:19;1.20;;;1.17;;
8825;SDS011;4449;50.872;4.714;2023-04-01T07:54:52;1.73;;;1.63;;
8825;SDS011;4449;50.872;4.714;2023-04-01T07:57:23;1.70;;;1.60;;
8825;SDS011;4449;50.872;4.714;2023-04-01T07:59:56;1.85;;;1.70;;
8825;SDS011;4449;50.872;4.714;2023-04-01T08:02:29;1.90;;;1.80;;
8825;SDS011;4449;50.872;4.714;2023-04-01T08:05:04;1.30;;;1.30;;
8825;SDS011;4449;50.872;4.714;2023-04-01T08:07:36;1.42;;;1.30;;
8825;SDS011;4449;50.872;4.714;2023-04-01T08:10:10;1.00;;;1.00;;
8825;SDS011;4449;50.872;4.714;2023-04-01T08:12:40;3.20;;;2.10;;
8825;SDS011;4449;50.872;4.714;2023-04-01T08:15:14;0.90;;;0.80;;
8825;SDS011;4449;50.872;4.714;2023-04-01T08:17:45;0.68;;;0.68;;
8825;SDS011;4449;50.872;4.714;2023-04-01T08:20:19;1.30;;;0.70;;
8825;SDS011;4449;50.872;4.714;2023-04-01T08:22:52;0.70;;;0.70;;
8825;SDS011;4449;50.872;4.714;2023-04-01T08:25:22;0.90;;;0.90;;
8825;SDS011;4449;50.872;4.714;2023-04-01T08:27:53;0.60;;;0.60;;
8825;SDS011;4449;50.872;4.714;2023-04-01T08:30:25;0.90;;;0.75;;
8825;SDS011;4449;50.872;4.714;2023-04-01T08:32:54;0.70;;;0.70;;
8825;SDS011;4449;50.872;4.714;2023-04-01T08:35:28;0.73;;;0.73;;
8825;SDS011;4449;50.872;4.714;2023-04-01T08:37:58;0.80;;;0.80;;
8825;SDS011;4449;50.872;4.714;2023-04-01T08:40:37;1.80;;;1.00;;
8825;SDS011;4449;50.872;4.714;2023-04-01T08:43:07;1.05;;;0.98;;
8825;SDS011;4449;50.872;4.714;2023-04-01T08:45:43;1.20;;;1.20;;
8825;SDS011;4449;50.872;4.714;2023-04-01T08:48:19;0.90;;;0.90;;
8825;SDS011;4449;50.872;4.714;2023-04-01T08:50:53;0.88;;;0.88;;
8825;SDS011;4449;50.872;4.714;2023-04-01T08:53:27;0.90;;;0.85;;
8825;SDS011;4449;50.872;4.714;2023-04-01T08:56:03;0.90;;;0.90;;
8825;SDS011;4449;50.872;4.714;2023-04-01T09:01:20;1.20;;;1.10;;
8825;SDS011;4449;50.872;4.714;2023-04-01T09:03:59;1.20;;;1.20;;
8825;SDS011;4449;50.872;4.714;2023-04-01T09:06:37;1.17;;;1.17;;
8825;SDS011;4449;50.872;4.714;2023-04-01T09:09:22;0.98;;;0.98;;
8825;SDS011;4449;50.872;4.714;2023-04-01T09:11:57;1.10;;;1.10;;
8825;SDS011;4449;50.872;4.714;2023-04-01T09:14:31;1.10;;;1.10;;
8825;SDS011;4449;50.872;4.714;2023-04-01T09:19:57;1.20;;;0.90;;
8825;SDS011;4449;50.872;4.714;2023-04-01T09:22:36;1.10;;;1.10;;
8825;SDS011;4449;50.872;4.714;2023-04-01T09:25:13;2.10;;;1.00;;
8825;SDS011;4449;50.872;4.714;2023-04-01T09:27:44;1.00;;;1.00;;
8825;SDS011;4449;50.872;4.714;2023-04-01T09:30:24;0.90;;;0.90;;
8825;SDS011;4449;50.872;4.714;2023-04-01T09:35:55;0.80;;;0.80;;
8825;SDS011;4449;50.872;4.714;2023-04-01T09:38:31;0.77;;;0.77;;
8825;SDS011;4449;50.872;4.714;2023-04-01T09:41:07;0.85;;;0.85;;
8825;SDS011;4449;50.872;4.714;2023-04-01T10:41:39;2.53;;;2.35;;
8825;SDS011;4449;50.872;4.714;2023-04-01T10:47:02;1.50;;;1.50;;
8825;SDS011;4449;50.872;4.714;2023-04-01T10:49:44;1.47;;;1.43;;
8825;SDS011;4449;50.872;4.714;2023-04-01T10:52:26;1.57;;;1.20;;
8825;SDS011;4449;50.872;4.714;2023-04-01T10:55:01;2.13;;;1.90;;
8825;SDS011;4449;50.872;4.714;2023-04-01T10:57:46;1.60;;;1.50;;
8825;SDS011;4449;50.872;4.714;2023-04-01T11:00:28;1.87;;;1.53;;
8825;SDS011;4449;50.872;4.714;2023-04-01T11:05:54;1.88;;;1.70;;
8825;SDS011;4449;50.872;4.714;2023-04-01T11:14:07;1.67;;;1.60;;
8825;SDS011;4449;50.872;4.714;2023-04-01T11:16:53;2.03;;;1.60;;
8825;SDS011;4449;50.872;4.714;2023-04-01T11:19:33;1.27;;;1.17;;
8825;SDS011;4449;50.872;4.714;2023-04-01T11:22:14;1.57;;;1.30;;
8825;SDS011;4449;50.872;4.714;2023-04-01T11:24:58;1.67;;;1.57;;
8825;SDS011;4449;50.872;4.714;2023-04-01T11:27:33;1.23;;;1.23;;
8825;SDS011;4449;50.872;4.714;2023-04-01T11:33:03;1.00;;;1.00;;
8825;SDS011;4449;50.872;4.714;2023-04-01T11:35:45;0.93;;;0.93;;
8825;SDS011;4449;50.872;4.714;2023-04-01T11:38:19;1.00;;;1.00;;
8825;SDS011;4449;50.872;4.714;2023-04-01T11:40:51;0.80;;;0.80;;
8825;SDS011;4449;50.872;4.714;2023-04-01T11:43:24;0.83;;;0.83;;
8825;SDS011;4449;50.872;4.714;2023-04-01T11:45:57;1.80;;;1.77;;
8825;SDS011;4449;50.872;4.714;2023-04-01T11:48:32;0.60;;;0.60;;
8825;SDS011;4449;50.872;4.714;2023-04-01T11:51:05;1.00;;;1.00;;
8825;SDS011;4449;50.872;4.714;2023-04-01T11:53:39;1.67;;;1.58;;
8825;SDS011;4449;50.872;4.714;2023-04-01T11:56:21;1.02;;;1.02;;
8825;SDS011;4449;50.872;4.714;2023-04-01T11:58:57;2.90;;;1.00;;
8825;SDS011;4449;50.872;4.714;2023-04-01T12:01:36;1.10;;;1.10;;
8825;SDS011;4449;50.872;4.714;2023-04-01T12:06:52;0.80;;;0.80;;
8825;SDS011;4449;50.872;4.714;2023-04-01T12:09:25;0.83;;;0.83;;
8825;SDS011;4449;50.872;4.714;2023-04-01T12:11:59;0.83;;;0.83;;
8825;SDS011;4449;50.872;4.714;2023-04-01T12:14:32;0.80;;;0.80;;
8825;SDS011;4449;50.872;4.714;2023-04-01T12:17:03;1.00;;;1.00;;
8825;SDS011;4449;50.872;4.714;2023-04-01T12:19:36;0.73;;;0.73;;
8825;SDS011;4449;50.872;4.714;2023-04-01T12:22:12;1.00;;;0.90;;
8825;SDS011;4449;50.872;4.714;2023-04-01T12:24:47;0.80;;;0.80;;
8825;SDS011;4449;50.872;4.714;2023-04-01T12:27:31;1.48;;;1.10;;
8825;SDS011;4449;50.872;4.714;2023-04-01T12:30:13;1.70;;;1.10;;
8825;SDS011;4449;50.872;4.714;2023-04-01T12:32:45;1.00;;;1.00;;
8825;SDS011;4449;50.872;4.714;2023-04-01T12:35:20;1.20;;;1.20;;
8825;SDS011;4449;50.872;4.714;2023-04-01T12:38:03;0.80;;;0.80;;
8825;SDS011;4449;50.872;4.714;2023-04-01T12:40:45;1.30;;;1.20;;
8825;SDS011;4449;50.872;4.714;2023-04-01T12:43:28;10.63;;;1.90;;
8825;SDS011;4449;50.872;4.714;2023-04-01T13:13:14;0.80;;;0.80;;
8825;SDS011;4449;50.872;4.714;2023-04-01T13:15:44;0.90;;;0.90;;
8825;SDS011;4449;50.872;4.714;2023-04-01T13:18:18;1.30;;;1.30;;
8825;SDS011;4449;50.872;4.714;2023-04-01T13:20:49;1.50;;;1.40;;
8825;SDS011;4449;50.872;4.714;2023-04-01T13:23:31;1.10;;;1.10;;
8825;SDS011;4449;50.872;4.714;2023-04-01T13:26:03;1.10;;;1.10;;
8825;SDS011;4449;50.872;4.714;2023-04-01T13:28:36;0.98;;;0.98;;
8825;SDS011;4449;50.872;4.714;2023-04-01T13:31:07;0.90;;;0.90;;
8825;SDS011;4449;50.872;4.714;2023-04-01T13:33:38;1.00;;;1.00;;
8825;SDS011;4449;50.872;4.714;2023-04-01T13:36:15;1.33;;;1.20;;
8825;SDS011;4449;50.872;4.714;2023-04-01T13:38:48;1.10;;;1.10;;
8825;SDS011;4449;50.872;4.714;2023-04-01T13:41:26;1.30;;;1.30;;
8825;SDS011;4449;50.872;4.714;2023-04-01T13:44:00;0.90;;;0.90;;
8825;SDS011;4449;50.872;4.714;2023-04-01T13:46:34;1.15;;;1.15;;
8825;SDS011;4449;50.872;4.714;2023-04-01T13:49:11;1.47;;;1.40;;
8825;SDS011;4449;50.872;4.714;2023-04-01T13:52:00;1.03;;;1.03;;
8825;SDS011;4449;50.872;4.714;2023-04-01T14:07:08;0.90;;;0.90;;
8825;SDS011;4449;50.872;4.714;2023-04-01T14:09:43;1.02;;;1.02;;
8825;SDS011;4449;50.872;4.714;2023-04-01T14:12:14;0.90;;;0.90;;
8825;SDS011;4449;50.872;4.714;2023-04-01T14:14:49;0.87;;;0.77;;
8825;SDS011;4449;50.872;4.714;2023-04-01T14:17:22;0.80;;;0.80;;
8825;SDS011;4449;50.872;4.714;2023-04-01T14:19:58;0.90;;;0.90;;
8825;SDS011;4449;50.872;4.714;2023-04-01T14:22:30;0.93;;;0.93;;
8825;SDS011;4449;50.872;4.714;2023-04-01T14:25:15;0.60;;;0.60;;
8825;SDS011;4449;50.872;4.714;2023-04-01T14:27:46;4.57;;;1.37;;
8825;SDS011;4449;50.872;4.714;2023-04-01T14:33:05;1.70;;;1.63;;
8825;SDS011;4449;50.872;4.714;2023-04-01T14:35:38;1.90;;;1.80;;
8825;SDS011;4449;50.872;4.714;2023-04-01T14:40:54;1.93;;;1.83;;
8825;SDS011;4449;50.872;4.714;2023-04-01T14:43:41;1.80;;;1.80;;
8825;SDS011;4449;50.872;4.714;2023-04-01T14:46:20;2.20;;;2.10;;
8825;SDS011;4449;50.872;4.714;2023-04-01T14:48:53;2.50;;;2.30;;
8825;SDS011;4449;50.872;4.714;2023-04-01T14:51:23;1.87;;;1.87;;
8825;SDS011;4449;50.872;4.714;2023-04-01T14:54:01;2.20;;;1.80;;
8825;SDS011;4449;50.872;4.714;2023-04-01T14:56:38;2.30;;;2.13;;
8825;SDS011;4449;50.872;4.714;2023-04-01T14:59:14;2.20;;;2.00;;
8825;SDS011;4449;50.872;4.714;2023-04-01T15:01:45;1.93;;;1.93;;
8825;SDS011;4449;50.872;4.714;2023-04-01T15:04:22;1.63;;;1.63;;
8825;SDS011;4449;50.872;4.714;2023-04-01T15:09:42;4.60;;;1.53;;
8825;SDS011;4449;50.872;4.714;2023-04-01T15:12:17;1.80;;;1.70;;
8825;SDS011;4449;50.872;4.714;2023-04-01T15:14:53;2.10;;;2.00;;
8825;SDS011;4449;50.872;4.714;2023-04-01T15:17:35;1.43;;;1.37;;
8825;SDS011;4449;50.872;4.714;2023-04-01T15:20:10;1.13;;;1.00;;
8825;SDS011;4449;50.872;4.714;2023-04-01T15:22:47;1.50;;;1.40;;
8825;SDS011;4449;50.872;4.714;2023-04-01T15:25:20;1.47;;;1.47;;
8825;SDS011;4449;50.872;4.714;2023-04-01T15:27:53;1.20;;;1.20;;
8825;SDS011;4449;50.872;4.714;2023-04-01T15:30:33;1.97;;;1.00;;
8825;SDS011;4449;50.872;4.714;2023-04-01T15:33:11;1.07;;;1.07;;
8825;SDS011;4449;50.872;4.714;2023-04-01T15:35:43;14.37;;;10.50;;
8825;SDS011;4449;50.872;4.714;2023-04-01T15:38:17;1.77;;;1.70;;
8825;SDS011;4449;50.872;4.714;2023-04-01T15:40:51;1.10;;;1.10;;
8825;SDS011;4449;50.872;4.714;2023-04-01T15:43:28;1.20;;;1.20;;
8825;SDS011;4449;50.872;4.714;2023-04-01T15:45:58;1.40;;;1.40;;
8825;SDS011;4449;50.872;4.714;2023-04-01T15:48:41;1.47;;;1.47;;
8825;SDS011;4449;50.872;4.714;2023-04-01T15:51:16;1.13;;;1.13;;
8825;SDS011;4449;50.872;4.714;2023-04-01T15:53:50;1.50;;;1.30;;
8825;SDS011;4449;50.872;4.714;2023-04-01T15:56:26;1.10;;;1.10;;
8825;SDS011;4449;50.872;4.714;2023-04-01T15:59:02;1.17;;;1.17;;
8825;SDS011;4449;50.872;4.714;2023-04-01T16:01:35;2.20;;;2.10;;
8825;SDS011;4449;50.872;4.714;2023-04-01T16:04:11;2.03;;;1.93;;
8825;SDS011;4449;50.872;4.714;2023-04-01T16:06:58;1.40;;;1.40;;
8825;SDS011;4449;50.872;4.714;2023-04-01T16:09:39;1.60;;;1.60;;
8825;SDS011;4449;50.872;4.714;2023-04-01T16:12:14;2.10;;;1.50;;
8825;SDS011;4449;50.872;4.714;2023-04-01T16:14:48;1.47;;;1.37;;
8825;SDS011;4449;50.872;4.714;2023-04-01T16:20:17;3.53;;;2.23;;
8825;SDS011;4449;50.872;4.714;2023-04-01T16:22:49;1.53;;;1.43;;
8825;SDS011;4449;50.872;4.714;2023-04-01T16:25:19;1.50;;;1.40;;
8825;SDS011;4449;50.872;4.714;2023-04-01T16:27:50;3.05;;;1.40;;
8825;SDS011;4449;50.872;4.714;2023-04-01T16:33:11;1.42;;;1.33;;
8825;SDS011;4449;50.872;4.714;2023-04-01T16:35:41;1.60;;;1.50;;
8825;SDS011;4449;50.872;4.714;2023-04-01T16:38:13;1.50;;;1.40;;
8825;SDS011;4449;50.872;4.714;2023-04-01T16:40:46;1.35;;;1.27;;
8825;SDS011;4449;50.872;4.714;2023-04-01T16:43:16;1.40;;;1.30;;
8825;SDS011;4449;50.872;4.714;2023-04-01T16:45:51;1.40;;;1.30;;
8825;SDS011;4449;50.872;4.714;2023-04-01T16:48:21;1.50;;;1.50;;
8825;SDS011;4449;50.872;4.714;2023-04-01T16:50:52;1.85;;;1.73;;
8825;SDS011;4449;50.872;4.714;2023-04-01T16:53:25;2.10;;;2.00;;
8825;SDS011;4449;50.872;4.714;2023-04-01T16:55:54;2.17;;;1.97;;
8825;SDS011;4449;50.872;4.714;2023-04-01T16:58:26;2.03;;;1.92;;
8825;SDS011;4449;50.872;4.714;2023-04-01T17:00:58;1.95;;;1.85;;
8825;SDS011;4449;50.872;4.714;2023-04-01T17:03:30;1.90;;;1.80;;
8825;SDS011;4449;50.872;4.714;2023-04-01T17:06:10;2.08;;;1.98;;
8825;SDS011;4449;50.872;4.714;2023-04-01T17:11:28;1.95;;;1.85;;
8825;SDS011;4449;50.872;4.714;2023-04-01T17:14:01;2.20;;;2.10;;
8825;SDS011;4449;50.872;4.714;2023-04-01T17:16:49;1.90;;;1.80;;
8825;SDS011;4449;50.872;4.714;2023-04-01T17:19:25;1.95;;;1.85;;
8825;SDS011;4449;50.872;4.714;2023-04-01T17:21:57;1.90;;;1.80;;
8825;SDS011;4449;50.872;4.714;2023-04-01T17:24:34;2.30;;;2.20;;
8825;SDS011;4449;50.872;4.714;2023-04-01T17:27:10;1.98;;;1.88;;
8825;SDS011;4449;50.872;4.714;2023-04-01T17:29:46;2.33;;;2.22;;
8825;SDS011;4449;50.872;4.714;2023-04-01T17:32:30;2.55;;;2.40;;
8825;SDS011;4449;50.872;4.714;2023-04-01T17:35:05;2.40;;;2.30;;
8825;SDS011;4449;50.872;4.714;2023-04-01T17:37:40;2.40;;;2.30;;
8825;SDS011;4449;50.872;4.714;2023-04-01T17:40:15;2.08;;;2.00;;
8825;SDS011;4449;50.872;4.714;2023-04-01T17:42:46;2.20;;;2.10;;
8825;SDS011;4449;50.872;4.714;2023-04-01T17:45:18;2.20;;;2.20;;
8825;SDS011;4449;50.872;4.714;2023-04-01T17:47:53;2.33;;;2.30;;
8825;SDS011;4449;50.872;4.714;2023-04-01T17:50:26;2.50;;;2.30;;
8825;SDS011;4449;50.872;4.714;2023-04-01T17:53:02;2.40;;;2.30;;
8825;SDS011;4449;50.872;4.714;2023-04-01T17:55:46;2.95;;;2.75;;
8825;SDS011;4449;50.872;4.714;2023-04-01T17:58:17;3.25;;;3.05;;
8825;SDS011;4449;50.872;4.714;2023-04-01T18:00:57;3.20;;;3.00;;
8825;SDS011;4449;50.872;4.714;2023-04-01T18:03:35;3.65;;;3.38;;
8825;SDS011;4449;50.872;4.714;2023-04-01T18:06:12;2.80;;;2.70;;
8825;SDS011;4449;50.872;4.714;2023-04-01T18:08:45;2.80;;;2.60;;
8825;SDS011;4449;50.872;4.714;2023-04-01T18:11:19;2.67;;;2.55;;
8825;SDS011;4449;50.872;4.714;2023-04-01T18:14:07;2.40;;;2.30;;
8825;SDS011;4449;50.872;4.714;2023-04-01T18:16:43;2.67;;;2.58;;